CMA CGM Aristote — MRPN4 — position and weather

sailwx.info

Track history (hours):
 
Tides and Currents Weather Stations Pressure Air Temp Water Temp Dewpoint Dewpoint Depression Visibility Wind Speed Wind Dir Waves Ship Positions

CMA CGM Aristote

Last reported at 2017-Nov-23 06:05 UTC. Time now 2017-Nov-23 07:43 UTC.
Position N 35°14' W 006°37'.

Length 170 m; draft 9 m.

Type: Ship (hazmat cat A). MMSI: 235054581.

Date/timePositionNaut miles runAvg speedWind from/ knotsBaromVisibWave heightAir tempDewpointWater temp
2017-Nov-23 06:05N 35°14' W 006°37'6614.6
2017-Nov-23 01:35N 35°57' W 005°36'116.2
2017-Nov-23 01:30N 35°57' W 005°35'  
2017-Nov-20 00:30N 36°03' W 005°15'3 6.4
2017-Nov-20 00:01N 36°03' W 005°11'611.5
2017-Nov-19 23:30N 36°00' W 005°17'714.3
2017-Nov-19 23:00N 35°58' W 005°25'9012.4
2017-Nov-19 15:47N 35°07' W 006°56'413.6
2017-Nov-19 15:29N 35°04' W 006°59'49113.4
2017-Nov-18 02:44N 28°39' W 012°59'413.1
2017-Nov-18 02:28N 28°37' W 013°01'613.3
2017-Nov-18 02:00N 28°31' W 013°05'713.4
2017-Nov-18 01:28N 28°25' W 013°09'613.3
2017-Nov-18 01:00N 28°20' W 013°13'813.4
2017-Nov-18 00:22N 28°13' W 013°18'613.4
2017-Nov-17 23:56N 28°08' W 013°22'3113.5
2017-Nov-17 21:38N 27°47' W 013°47'1013.1
2017-Nov-17 20:53N 27°39' W 013°55'613.2
2017-Nov-17 20:27N 27°35' W 013°59'613.1
2017-Nov-17 19:59N 27°31' W 014°04'813.3
2017-Nov-17 19:24N 27°26' W 014°10'513.5
2017-Nov-17 19:00N 27°22' W 014°15'612.8
2017-Nov-17 18:30N 27°17' W 014°20'612.8
2017-Nov-17 18:01N 27°13' W 014°25'712.9
2017-Nov-17 17:26N 27°08' W 014°31'  
Track history (hours):
 
Tides and Currents Weather Stations Pressure Air Temp Water Temp Dewpoint Dewpoint Depression Visibility Wind Speed Wind Dir Waves Ship Positions

CMA CGM Aristote

Last reported at 2017-Nov-23 06:05 UTC. Time now 2017-Nov-23 07:43 UTC.
Position N 35°14' W 006°37'.

Length 170 m; draft 9 m.

Type: Ship (hazmat cat A). MMSI: 235054581.

Date/timePositionNaut miles runAvg speedWind from/ knotsBaromVisibWave heightAir tempDewpointWater temp
2017-Nov-23 06:05N 35°14' W 006°37'6614.6
2017-Nov-23 01:35N 35°57' W 005°36'116.2
2017-Nov-23 01:30N 35°57' W 005°35'  
2017-Nov-20 00:30N 36°03' W 005°15'3 6.4
2017-Nov-20 00:01N 36°03' W 005°11'611.5
2017-Nov-19 23:30N 36°00' W 005°17'714.3
2017-Nov-19 23:00N 35°58' W 005°25'9012.4
2017-Nov-19 15:47N 35°07' W 006°56'413.6
2017-Nov-19 15:29N 35°04' W 006°59'49113.4
2017-Nov-18 02:44N 28°39' W 012°59'413.1
2017-Nov-18 02:28N 28°37' W 013°01'613.3
2017-Nov-18 02:00N 28°31' W 013°05'713.4
2017-Nov-18 01:28N 28°25' W 013°09'613.3
2017-Nov-18 01:00N 28°20' W 013°13'813.4
2017-Nov-18 00:22N 28°13' W 013°18'613.4
2017-Nov-17 23:56N 28°08' W 013°22'3113.5
2017-Nov-17 21:38N 27°47' W 013°47'1013.1
2017-Nov-17 20:53N 27°39' W 013°55'613.2
2017-Nov-17 20:27N 27°35' W 013°59'613.1
2017-Nov-17 19:59N 27°31' W 014°04'813.3
2017-Nov-17 19:24N 27°26' W 014°10'513.5
2017-Nov-17 19:00N 27°22' W 014°15'612.8
2017-Nov-17 18:30N 27°17' W 014°20'612.8
2017-Nov-17 18:01N 27°13' W 014°25'712.9
2017-Nov-17 17:26N 27°08' W 014°31'  

Dump ship's entire track history